Dunnville, Canada
Current Conditions -  °F | °C
As of 1:00 PM on Sunday 25 Jan 2015 (Local Time) from CYHM Reporting Station
Scattered Clouds Scattered Clouds  
Wind Chill:   Ceiling: Unl
Heat Index: 19°   Visibility: 15mi
Dew Point:   Wind: 12mph
Humidity: 54%   Direction: 30°NNE
Pressure: 29.92"   Gusts: NA
Location:  42.9°N, 79.62°W
Report Text: CYHM 251800Z 03010KT 15SM FEW025 SCT250 M07/M15 A2992 RMK SC1CI4 SC TR SLP143
Loading
Personal Weather Stations






























Interactive Weather Map New forecast layout! Learn more

10-Day Weather Forecast

Advertisements
Track Severe Weather on mobile